Time;durP1;ratioP1;P1;durP2;ratioP2;P2;SDS_P1;SDS_P2;PMS_P1;PMS_P2;Temp;Humidity;BMP_temperature;BMP_pressure;BME280_temperature;BME280_humidity;BME280_pressure;Samples;Min_cycle;Max_cycle;Signal;HPM_P1;HPM_P2
2021/05/11 00:00:15;;;;;;;1.97;1.60;;;;;;;19.21;68.64;96485.56;5049505;28;20201;-67
2021/05/11 00:02:42;;;;;;;1.50;1.40;;;;;;;19.49;69.24;96535.44;5071504;28;20227;-67
2021/05/11 00:05:08;;;;;;;1.50;1.40;;;;;;;19.13;68.72;96469.22;5064868;28;20700;-66
2021/05/11 00:07:35;;;;;;;1.60;1.50;;;;;;;19.51;68.21;96519.34;5061813;28;20301;-68
2021/05/11 00:10:01;;;;;;;1.40;1.30;;;;;;;19.47;68.94;96503.97;5070244;28;20223;-68
2021/05/11 00:12:27;;;;;;;1.70;1.60;;;;;;;19.53;68.86;96532.13;5062292;28;20232;-65
2021/05/11 00:14:53;;;;;;;1.60;1.50;;;;;;;19.51;68.53;96527.00;5075466;28;20695;-66
2021/05/11 00:17:19;;;;;;;1.80;1.70;;;;;;;19.21;68.98;96467.72;5063717;28;20877;-66
2021/05/11 00:19:46;;;;;;;1.17;1.17;;;;;;;19.23;68.53;96475.41;5065250;28;20567;-67
2021/05/11 00:22:12;;;;;;;1.40;1.30;;;;;;;19.21;68.19;96465.19;5068704;28;20200;-66
2021/05/11 00:24:38;;;;;;;1.23;1.17;;;;;;;19.53;68.54;96532.13;5054968;28;20231;-66
2021/05/11 00:29:51;;;;;;;1.70;1.60;;;;;;;19.53;68.70;96540.66;6020849;22;20584;-67
2021/05/11 00:32:17;;;;;;;2.27;1.47;;;;;;;19.31;68.61;96496.84;5083262;28;20666;-66
2021/05/11 00:37:25;;;;;;;1.50;1.40;;;;;;;19.47;68.99;96516.72;5771268;22;20320;-66
2021/05/11 00:39:51;;;;;;;1.50;1.40;;;;;;;19.52;68.77;96521.09;5016106;28;20579;-67
2021/05/11 00:42:17;;;;;;;1.60;1.50;;;;;;;19.52;68.43;96518.56;5023370;28;20551;-69
2021/05/11 00:44:43;;;;;;;1.60;1.50;;;;;;;19.38;68.58;96491.91;5022581;28;20630;-68
2021/05/11 00:47:09;;;;;;;1.30;1.20;;;;;;;18.99;68.53;96424.81;5000927;28;20217;-68
2021/05/11 00:49:36;;;;;;;1.33;1.27;;;;;;;19.08;68.46;96435.19;5006576;28;20220;-69
2021/05/11 00:52:04;;;;;;;1.60;1.50;;;;;;;19.36;68.75;96491.00;4996295;28;20606;-68
2021/05/11 00:54:30;;;;;;;1.70;1.60;;;;;;;19.51;68.88;96521.06;5012453;28;20216;-68
2021/05/11 00:56:57;;;;;;;1.50;1.40;;;;;;;19.52;68.93;96512.59;5018573;28;20217;-68
2021/05/11 01:01:49;;;;;;;1.47;1.37;;;;;;;18.91;68.98;96402.53;5020570;28;20206;-68
2021/05/11 01:04:15;;;;;;;1.57;1.47;;;;;;;19.43;69.02;96486.91;4997738;28;20204;-68
2021/05/11 01:06:41;;;;;;;2.97;1.40;;;;;;;19.51;69.54;96498.13;5004414;28;20225;-68
2021/05/11 01:09:08;;;;;;;1.40;1.30;;;;;;;19.36;68.87;96457.88;5027210;28;20340;-65
2021/05/11 01:11:35;;;;;;;1.30;1.20;;;;;;;19.49;68.86;96472.63;4987197;28;20202;-66
2021/05/11 01:14:01;;;;;;;1.60;1.50;;;;;;;19.36;69.06;96460.44;5026195;28;20730;-68
2021/05/11 01:16:29;;;;;;;1.40;1.30;;;;;;;19.50;68.62;96481.97;5010270;28;20300;-68
2021/05/11 01:19:00;;;;;;;1.40;1.30;;;;;;;19.49;68.87;96476.84;5008340;28;20230;-66
2021/05/11 01:21:39;;;;;;;1.50;1.40;;;;;;;19.50;68.94;96476.88;5010351;28;20723;-66
2021/05/11 01:24:09;;;;;;;1.70;1.60;;;;;;;19.49;68.91;96477.72;5024884;28;20276;-64
2021/05/11 01:26:51;;;;;;;1.60;1.50;;;;;;;18.76;68.99;96336.91;5009154;28;20316;-65
2021/05/11 01:48:35;;;;;;;1.83;1.30;;;;;;;18.92;68.95;96387.28;5006676;28;20305;-69
2021/05/11 02:23:18;;;;;;;1.40;1.30;;;;;;;19.32;69.05;96439.97;5016982;28;20573;-66
2021/05/11 02:25:44;;;;;;;1.20;1.10;;;;;;;19.34;69.07;96458.69;4980369;28;20229;-65
2021/05/11 02:28:10;;;;;;;1.57;1.30;;;;;;;18.94;69.03;96374.59;5005452;28;20257;-66
2021/05/11 02:30:37;;;;;;;1.40;1.30;;;;;;;18.85;69.27;96359.13;5013525;28;20301;-66
2021/05/11 02:33:03;;;;;;;1.50;1.40;;;;;;;19.39;69.34;96454.56;5007531;28;20702;-66
2021/05/11 02:35:29;;;;;;;1.87;1.77;;;;;;;18.94;69.41;96377.13;5010810;28;20246;-66
2021/05/11 02:37:55;;;;;;;1.20;1.10;;;;;;;19.14;69.20;96425.13;5012338;28;20268;-65
2021/05/11 02:40:22;;;;;;;1.40;1.30;;;;;;;19.33;69.54;96472.28;5017301;28;20293;-66
2021/05/11 02:42:52;;;;;;;1.97;1.47;;;;;;;18.83;69.68;96406.63;4981155;28;20701;-67
2021/05/11 02:45:18;;;;;;;1.40;1.30;;;;;;;17.96;69.55;96256.22;4995580;28;20201;-66
2021/05/11 02:47:51;;;;;;;1.40;1.30;;;;;;;19.33;69.53;96418.78;5016513;28;20299;-65
2021/05/11 02:50:17;;;;;;;1.30;1.20;;;;;;;19.46;69.37;96425.81;5010933;28;20244;-68
2021/05/11 02:52:43;;;;;;;1.10;1.10;;;;;;;18.97;69.74;96370.44;5013155;28;20698;-67
2021/05/11 02:55:09;;;;;;;1.40;1.30;;;;;;;19.02;69.57;96380.72;5009016;28;20225;-67
2021/05/11 02:57:35;;;;;;;1.30;1.20;;;;;;;19.45;69.52;96442.78;4994049;28;20397;-67
2021/05/11 03:00:03;;;;;;;1.17;1.13;;;;;;;19.24;69.45;96408.34;5023437;28;20304;-67
2021/05/11 03:02:29;;;;;;;1.40;1.30;;;;;;;19.45;69.38;96442.78;5012879;28;20202;-66
2021/05/11 03:04:55;;;;;;;1.50;1.40;;;;;;;17.74;69.39;96144.75;5026324;28;20202;-67
2021/05/11 03:07:22;;;;;;;2.27;1.33;;;;;;;19.45;69.78;96455.53;5017417;28;20830;-67
2021/05/11 03:09:48;;;;;;;1.50;1.40;;;;;;;19.31;69.46;96438.25;5012334;28;20638;-67
2021/05/11 03:12:14;;;;;;;1.10;1.10;;;;;;;19.30;69.52;96439.09;5026973;28;20293;-68
2021/05/11 03:14:40;;;;;;;1.00;1.00;;;;;;;19.38;69.48;96452.81;5013198;28;20253;-67
2021/05/11 03:17:06;;;;;;;1.20;1.10;;;;;;;18.96;69.30;96383.13;5018878;28;20702;-67
2021/05/11 03:19:33;;;;;;;1.40;1.30;;;;;;;19.21;69.26;96432.06;5009603;28;20255;-67
2021/05/11 03:21:59;;;;;;;1.23;1.20;;;;;;;17.67;69.34;96183.56;5009587;28;20202;-67
2021/05/11 03:24:25;;;;;;;1.50;1.40;;;;;;;19.42;69.38;96462.28;5029687;28;20248;-66
2021/05/11 03:26:51;;;;;;;1.67;1.57;;;;;;;19.46;69.52;96475.09;5011032;28;20631;-67
2021/05/11 03:29:18;;;;;;;1.20;1.20;;;;;;;19.33;69.64;96464.63;5017459;28;20202;-66
2021/05/11 03:31:44;;;;;;;1.13;1.13;;;;;;;19.46;69.35;96482.75;4989152;28;20694;-66
2021/05/11 03:34:10;;;;;;;1.23;1.13;;;;;;;19.45;69.30;96467.44;5011393;28;20655;-66
2021/05/11 03:36:36;;;;;;;1.30;1.20;;;;;;;19.46;69.58;96479.31;5009901;28;20225;-67
2021/05/11 03:39:05;;;;;;;2.13;1.40;;;;;;;19.37;69.41;96459.63;5012502;28;20646;-67
2021/05/11 03:41:43;;;;;;;1.40;1.30;;;;;;;19.37;69.35;96459.63;4992956;28;20213;-67
2021/05/11 03:44:12;;;;;;;1.33;1.23;;;;;;;19.39;69.50;96455.41;5006295;28;20225;-67
2021/05/11 03:46:39;;;;;;;1.20;1.20;;;;;;;19.33;69.80;96436.59;5021402;28;20226;-67
2021/05/11 03:49:06;;;;;;;1.20;1.20;;;;;;;19.47;69.55;96475.94;5005944;28;20217;-67
2021/05/11 03:51:34;;;;;;;1.40;1.30;;;;;;;18.06;69.22;96267.47;5011899;28;20201;-67
2021/05/11 03:54:01;;;;;;;1.07;1.07;;;;;;;19.46;69.56;96485.28;5024616;28;20736;-68
2021/05/11 03:56:28;;;;;;;1.30;1.20;;;;;;;19.46;69.82;96492.06;5029647;28;20232;-66
2021/05/11 03:58:54;;;;;;;1.10;1.10;;;;;;;19.46;69.07;96492.06;5024351;28;20747;-65
2021/05/11 04:01:21;;;;;;;1.10;1.10;;;;;;;19.46;69.56;96481.88;5005343;28;20350;-68
2021/05/11 04:03:48;;;;;;;1.10;1.10;;;;;;;18.95;69.38;96406.88;5021343;28;20206;-67
2021/05/11 04:06:14;;;;;;;1.10;1.10;;;;;;;19.31;69.35;96472.25;5004830;28;20206;-64
2021/05/11 04:08:48;;;;;;;1.10;1.10;;;;;;;19.40;69.45;96482.63;5004127;28;20257;-67
2021/05/11 04:16:46;;;;;;;1.40;1.30;;;;;;;19.45;69.76;96475.91;5029095;28;20275;-65
2021/05/11 04:19:14;;;;;;;1.40;1.30;;;;;;;19.42;69.80;96475.84;5009167;28;20469;-66
2021/05/11 04:21:40;;;;;;;1.10;1.10;;;;;;;19.44;69.88;96468.25;5022797;28;20284;-66
2021/05/11 04:24:07;;;;;;;1.17;1.13;;;;;;;19.36;69.88;96451.97;5025356;28;20244;-67
2021/05/11 04:26:33;;;;;;;1.20;1.10;;;;;;;19.45;69.86;96463.16;5026076;28;20243;-65
2021/05/11 04:29:01;;;;;;;1.40;1.30;;;;;;;19.31;70.10;96441.66;4988219;28;20237;-66
2021/05/11 04:31:29;;;;;;;1.30;1.20;;;;;;;19.30;69.77;96442.47;4993462;28;20237;-66
2021/05/11 04:33:56;;;;;;;1.33;1.23;;;;;;;19.45;69.83;96459.78;4966264;28;20229;-66
2021/05/11 04:36:23;;;;;;;1.23;1.20;;;;;;;19.31;69.83;96428.06;5009169;28;20507;-67
2021/05/11 04:38:50;;;;;;;1.10;1.10;;;;;;;19.04;69.86;96382.47;4985331;28;20272;-67
2021/05/11 04:41:16;;;;;;;1.17;1.10;;;;;;;19.12;69.78;96396.22;5023630;28;20221;-67
2021/05/11 04:43:45;;;;;;;1.30;1.20;;;;;;;19.03;69.82;96383.28;5002661;28;20210;-66
2021/05/11 04:48:51;;;;;;;1.20;1.17;;;;;;;19.16;69.73;96417.53;5008244;28;20229;-66
2021/05/11 04:51:18;;;;;;;1.10;1.10;;;;;;;19.16;69.76;96422.63;5006008;28;20197;-66
2021/05/11 04:53:45;;;;;;;1.20;1.10;;;;;;;19.32;69.98;96450.16;4995977;28;20257;-66
2021/05/11 04:56:11;;;;;;;1.10;1.10;;;;;;;19.39;70.26;96457.94;5001536;28;20694;-66
2021/05/11 04:58:38;;;;;;;1.77;1.30;;;;;;;18.95;69.97;96378.88;5008204;28;20249;-66
2021/05/11 05:01:05;;;;;;;1.10;1.10;;;;;;;19.09;69.88;96405.47;4990923;28;20308;-67
2021/05/11 05:03:35;;;;;;;1.10;1.10;;;;;;;19.47;69.95;96465.75;4970151;28;20251;-66
2021/05/11 05:06:02;;;;;;;1.33;1.23;;;;;;;19.49;69.77;96464.09;5009054;28;20651;-67
2021/05/11 05:08:28;;;;;;;1.23;1.13;;;;;;;19.48;70.51;96465.78;4991979;28;20353;-66
2021/05/11 05:10:55;;;;;;;1.10;1.10;;;;;;;19.49;70.03;96466.66;5010458;28;20229;-66
2021/05/11 05:13:22;;;;;;;1.27;1.17;;;;;;;19.49;70.23;96467.53;5028992;28;20202;-66
2021/05/11 05:15:52;;;;;;;1.20;1.20;;;;;;;18.96;70.02;96373.81;5029648;28;20255;-67
2021/05/11 05:18:19;;;;;;;3.07;1.23;;;;;;;18.92;70.42;96371.19;5011769;28;20300;-66
2021/05/11 05:20:47;;;;;;;2.10;1.20;;;;;;;19.50;70.26;96476.00;4998693;28;20221;-67
2021/05/11 05:23:15;;;;;;;1.13;1.13;;;;;;;19.50;70.55;96474.34;5014801;28;20624;-67
2021/05/11 05:25:43;;;;;;;1.97;1.03;;;;;;;19.50;70.18;96470.91;5020848;28;20194;-66
2021/05/11 05:28:12;;;;;;;1.13;1.13;;;;;;;19.08;70.21;96393.56;5000357;28;20250;-67
2021/05/11 05:30:39;;;;;;;1.20;1.10;;;;;;;19.51;70.14;96477.75;4982375;28;20202;-65
2021/05/11 05:33:06;;;;;;;1.30;1.20;;;;;;;19.51;70.22;96491.31;5018254;28;20264;-66
2021/05/11 05:35:32;;;;;;;1.40;1.30;;;;;;;19.20;70.19;96432.03;5019967;28;20225;-66
2021/05/11 05:37:59;;;;;;;2.80;1.10;;;;;;;19.52;70.29;96490.53;5010907;28;20253;-67
2021/05/11 05:40:26;;;;;;;1.33;1.10;;;;;;;18.97;70.31;96377.22;5011983;28;20209;-67
2021/05/11 05:42:53;;;;;;;5.43;1.37;;;;;;;19.54;71.59;96472.72;4978981;28;20206;-67
2021/05/11 05:45:19;;;;;;;1.10;1.10;;;;;;;19.39;71.00;96464.75;5032311;28;20584;-66
2021/05/11 05:47:52;;;;;;;1.00;1.00;;;;;;;19.46;70.81;96485.28;5006008;28;20243;-67
2021/05/11 05:50:24;;;;;;;1.20;1.10;;;;;;;19.40;70.60;96459.69;5008063;28;20280;-67
2021/05/11 05:52:59;;;;;;;1.77;1.30;;;;;;;19.39;70.59;96465.59;4982780;28;20213;-67
2021/05/11 05:55:26;;;;;;;2.30;1.20;;;;;;;19.54;70.57;96486.28;4994856;28;20208;-67
2021/05/11 05:57:52;;;;;;;1.00;1.00;;;;;;;19.54;70.68;96485.47;5027064;28;20228;-67
2021/05/11 06:00:20;;;;;;;1.40;1.30;;;;;;;19.54;70.54;96495.66;5028418;28;20205;-66
2021/05/11 06:02:48;;;;;;;2.73;1.20;;;;;;;19.49;70.45;96490.47;5009882;28;20202;-66
2021/05/11 06:05:15;;;;;;;1.40;1.30;;;;;;;19.55;70.48;96499.91;5018650;28;20198;-67
2021/05/11 06:07:41;;;;;;;1.57;1.10;;;;;;;19.52;70.42;96497.28;4991932;28;20241;-67
2021/05/11 06:10:09;;;;;;;1.20;1.10;;;;;;;19.13;70.34;96437.84;5023868;28;20265;-67
2021/05/11 06:12:49;;;;;;;1.30;1.03;;;;;;;19.51;70.20;96498.97;5000571;28;20711;-66
2021/05/11 06:18:02;;;;;;;1.30;1.20;;;;;;;19.53;70.05;96486.25;5024746;28;20217;-68
2021/05/11 06:20:28;;;;;;;1.10;1.00;;;;;;;19.39;70.18;96485.13;5029816;28;20233;-67
2021/05/11 06:22:55;;;;;;;1.70;1.00;;;;;;;19.51;69.82;96498.97;5013407;28;20229;-68
2021/05/11 06:25:21;;;;;;;1.77;1.23;;;;;;;19.52;70.07;96497.28;5027440;28;20225;-66
2021/05/11 06:27:54;;;;;;;1.10;1.10;;;;;;;19.25;69.91;96454.25;5023740;28;20226;-67
2021/05/11 06:30:21;;;;;;;1.80;1.17;;;;;;;19.51;70.08;96500.69;4993557;28;20201;-67
2021/05/11 06:32:48;;;;;;;1.20;1.10;;;;;;;19.52;69.99;96512.59;5029124;28;20210;-67
2021/05/11 06:35:15;;;;;;;1.00;1.00;;;;;;;19.51;70.09;96510.88;5028603;28;20198;-68
2021/05/11 06:37:41;;;;;;;1.27;1.17;;;;;;;19.50;69.96;96512.56;5011900;28;20283;-67
2021/05/11 06:40:08;;;;;;;1.80;1.00;;;;;;;19.35;69.88;96481.66;5024325;28;20214;-67
2021/05/11 06:42:38;;;;;;;1.27;1.10;;;;;;;19.51;69.88;96509.16;5011365;28;20240;-66
2021/05/11 06:50:33;;;;;;;1.27;1.17;;;;;;;19.51;69.82;96509.16;5012483;28;20202;-68
2021/05/11 06:53:12;;;;;;;1.00;1.00;;;;;;;18.99;69.87;96401.91;5010108;28;20741;-67
2021/05/11 06:55:43;;;;;;;1.40;1.20;;;;;;;19.51;69.93;96477.75;5009211;28;20201;-68
2021/05/11 06:58:10;;;;;;;1.20;1.10;;;;;;;19.50;70.08;96476.00;5009084;28;20218;-67
2021/05/11 07:00:43;;;;;;;1.40;1.30;;;;;;;19.45;69.99;96469.97;5011053;28;20606;-67
2021/05/11 07:03:09;;;;;;;1.00;1.00;;;;;;;19.33;70.12;96451.88;4996872;28;20229;-67
2021/05/11 07:05:37;;;;;;;1.20;1.10;;;;;;;19.52;70.01;96489.66;4995432;28;20292;-67
2021/05/11 07:10:37;;;;;;;1.13;1.10;;;;;;;19.51;69.96;96487.94;5022625;28;20259;-67
2021/05/11 07:13:10;;;;;;;1.30;1.20;;;;;;;19.51;70.06;96478.59;5011664;28;20251;-65
2021/05/11 07:15:40;;;;;;;1.50;1.17;;;;;;;19.26;69.93;96415.19;5011926;28;20198;-67
2021/05/11 07:18:16;;;;;;;1.53;1.20;;;;;;;19.53;70.13;96453.13;5003893;28;20294;-67
2021/05/11 07:20:44;;;;;;;1.03;0.93;;;;;;;19.45;70.07;96430.06;5008203;28;20292;-67
2021/05/11 07:23:16;;;;;;;1.33;1.10;;;;;;;19.37;70.11;96423.97;4993386;28;20254;-67
2021/05/11 07:30:58;;;;;;;1.20;1.10;;;;;;;19.37;70.17;96397.63;4993533;28;20206;-68
2021/05/11 07:33:28;;;;;;;1.37;1.27;;;;;;;19.51;70.38;96414.03;5006547;28;20229;-67
2021/05/11 07:35:54;;;;;;;1.43;1.30;;;;;;;19.44;70.22;96392.69;5004854;28;20289;-66
2021/05/11 07:38:23;;;;;;;4.93;1.30;;;;;;;19.51;70.91;96399.59;5027303;28;20312;-67
2021/05/11 07:40:50;;;;;;;1.50;1.20;;;;;;;19.46;70.68;96391.03;5009954;28;20595;-67
2021/05/11 07:43:18;;;;;;;1.47;1.37;;;;;;;19.49;70.69;96405.50;5026168;28;20225;-68
2021/05/11 07:48:33;;;;;;;2.13;1.20;;;;;;;19.38;70.77;96399.31;5023372;28;20249;-67
2021/05/11 08:17:25;;;;;;;1.33;1.23;;;;;;;18.92;70.24;96336.38;5007677;28;20248;-67
2021/05/11 08:27:57;;;;;;;1.10;1.10;;;;;;;19.26;70.73;96394.81;4990525;28;20256;-66
2021/05/11 08:30:24;;;;;;;1.50;1.40;;;;;;;19.36;70.23;96403.56;5008667;28;20284;-65
2021/05/11 08:32:51;;;;;;;4.77;1.37;;;;;;;19.50;70.31;96441.22;5006856;28;20221;-70
2021/05/11 08:35:17;;;;;;;1.80;1.40;;;;;;;18.78;70.15;96326.75;5019957;28;20193;-67
2021/05/11 08:37:44;;;;;;;4.57;1.37;;;;;;;19.51;70.41;96455.66;5004168;28;20336;-67
2021/05/11 08:40:11;;;;;;;1.27;1.13;;;;;;;19.36;70.38;96440.06;5027060;28;20655;-68
2021/05/11 08:42:38;;;;;;;1.50;1.40;;;;;;;19.50;70.46;96464.13;5003037;28;20205;-67
2021/05/11 08:45:06;;;;;;;1.60;1.10;;;;;;;19.51;70.33;96470.09;5026521;28;20212;-65
2021/05/11 08:47:35;;;;;;;1.40;1.30;;;;;;;19.13;70.46;96392.84;5017502;28;20214;-68
2021/05/11 08:50:03;;;;;;;1.20;1.10;;;;;;;19.51;70.18;96455.66;4991656;28;20667;-67
2021/05/11 09:25:43;;;;;;;1.20;1.10;;;;;;;19.35;70.14;96338.13;4999994;28;20672;-67
2021/05/11 09:34:28;;;;;;;2.60;1.10;;;;;;;19.34;70.14;96372.09;5026266;28;20232;-67
2021/05/11 10:36:24;;;;;;;1.50;1.23;;;;;;;19.52;69.82;96374.97;5010219;28;20202;-67
2021/05/11 10:48:18;;;;;;;1.20;1.03;;;;;;;19.56;69.87;96352.13;5013800;28;20300;-67
2021/05/11 10:50:46;;;;;;;1.30;1.20;;;;;;;19.35;69.80;96307.56;5024412;28;20288;-69
2021/05/11 10:53:42;;;;;;;1.23;1.13;;;;;;;19.58;69.79;96353.03;5011920;28;20760;-67
2021/05/11 10:56:21;;;;;;;1.33;1.23;;;;;;;19.60;69.72;96345.41;5023687;28;20693;-69
2021/05/11 10:59:06;;;;;;;1.07;1.07;;;;;;;19.61;69.63;96342.91;5022756;28;20221;-67
2021/05/11 11:01:34;;;;;;;1.10;1.10;;;;;;;19.62;69.67;96347.16;5029274;28;20309;-65
2021/05/11 11:04:31;;;;;;;1.27;1.17;;;;;;;19.64;69.82;96342.09;5023810;28;20233;-67
2021/05/11 11:06:58;;;;;;;1.53;1.27;;;;;;;19.65;70.56;96339.56;5005871;28;20272;-68
2021/05/11 11:09:32;;;;;;;1.60;1.50;;;;;;;19.44;72.76;96293.31;5025544;28;20281;-66
2021/05/11 11:11:59;;;;;;;1.83;1.50;;;;;;;19.55;74.97;96318.97;4988383;28;20546;-67
2021/05/11 11:14:30;;;;;;;3.70;1.70;;;;;;;19.71;76.47;96333.69;5001643;28;20281;-67
2021/05/11 11:17:05;;;;;;;1.50;1.40;;;;;;;19.73;77.24;96332.91;5005680;28;20249;-67
2021/05/11 11:19:32;;;;;;;1.37;1.27;;;;;;;19.75;77.39;96328.69;5000959;28;20232;-67
2021/05/11 11:24:29;;;;;;;2.37;1.67;;;;;;;19.65;77.75;96300.47;4999812;28;21172;-68
2021/05/11 11:26:57;;;;;;;1.73;1.63;;;;;;;19.67;77.41;96291.16;5003714;28;20233;-67
2021/05/11 11:29:24;;;;;;;1.97;1.60;;;;;;;19.81;77.66;96313.50;5010944;28;20229;-66
2021/05/11 11:31:51;;;;;;;1.83;1.70;;;;;;;19.83;77.40;96333.91;5004523;28;20293;-68
2021/05/11 11:34:26;;;;;;;3.00;1.90;;;;;;;19.41;77.06;96241.44;5025304;28;20237;-66
2021/05/11 11:36:58;;;;;;;1.50;1.40;;;;;;;19.85;77.13;96322.06;4993008;28;20238;-67
2021/05/11 11:39:26;;;;;;;2.27;1.70;;;;;;;19.85;76.99;96320.38;4994630;28;20233;-65
2021/05/11 11:41:54;;;;;;;1.97;1.67;;;;;;;19.72;76.91;96304.84;5009305;28;20229;-66
2021/05/11 11:44:22;;;;;;;2.03;1.70;;;;;;;19.48;77.15;96279.78;4992412;28;20281;-67
2021/05/11 11:47:01;;;;;;;1.60;1.50;;;;;;;19.90;77.06;96335.75;5003111;28;20280;-64
2021/05/11 11:49:30;;;;;;;1.50;1.40;;;;;;;19.85;76.92;96327.16;5023122;28;20202;-67
2021/05/11 11:52:04;;;;;;;1.63;1.53;;;;;;;19.35;76.94;96241.34;4994653;28;20914;-66
2021/05/11 11:59:33;;;;;;;2.10;1.90;;;;;;;19.23;77.00;96223.25;5002325;28;20244;-69
2021/05/11 12:02:01;;;;;;;1.63;1.53;;;;;;;19.95;76.97;96349.41;4977919;28;20260;-66
2021/05/11 12:04:28;;;;;;;2.20;1.67;;;;;;;18.59;76.79;96110.94;5009013;28;20293;-67
2021/05/11 12:07:02;;;;;;;2.17;1.70;;;;;;;19.97;76.65;96319.72;5027780;28;20308;-67
2021/05/11 12:09:29;;;;;;;2.07;1.50;;;;;;;19.98;76.35;96313.78;5015792;28;20226;-67
2021/05/11 12:11:55;;;;;;;2.17;1.43;;;;;;;19.84;76.27;96295.69;5029207;28;20205;-68
2021/05/11 12:14:22;;;;;;;1.70;1.60;;;;;;;19.96;76.51;96318.84;5000581;28;20202;-67
2021/05/11 12:16:49;;;;;;;2.27;1.60;;;;;;;19.43;76.16;96217.72;5008320;28;20232;-68
2021/05/11 12:19:17;;;;;;;1.80;1.70;;;;;;;19.87;76.22;96282.16;5007369;28;20229;-67
2021/05/11 12:22:15;;;;;;;2.17;1.63;;;;;;;19.88;76.30;96294.94;5006352;28;20224;-67
2021/05/11 12:24:44;;;;;;;1.53;1.43;;;;;;;20.02;76.23;96309.59;4999005;28;20317;-67
2021/05/11 12:27:11;;;;;;;2.03;1.70;;;;;;;19.90;76.19;96284.75;5016140;28;20296;-67
2021/05/11 12:29:38;;;;;;;2.03;1.70;;;;;;;20.02;75.77;96302.81;5007676;28;20605;-67
2021/05/11 12:32:05;;;;;;;2.17;1.50;;;;;;;20.03;75.97;96304.50;5024497;28;20226;-67
2021/05/11 12:34:31;;;;;;;1.40;1.30;;;;;;;19.48;75.53;96213.53;5008904;28;20201;-67
2021/05/11 12:37:00;;;;;;;1.70;1.60;;;;;;;19.90;75.82;96293.25;5009009;28;20761;-67
2021/05/11 12:39:43;;;;;;;1.50;1.40;;;;;;;19.91;75.92;96305.19;4992027;28;20657;-68
2021/05/11 12:42:23;;;;;;;1.80;1.70;;;;;;;19.99;75.61;96321.44;5011750;28;20289;-68
2021/05/11 12:45:04;;;;;;;1.50;1.40;;;;;;;19.99;75.70;96326.53;5006706;28;20208;-66
2021/05/11 12:47:46;;;;;;;1.70;1.43;;;;;;;19.92;75.42;96313.66;5019820;28;20283;-67
2021/05/11 12:50:25;;;;;;;2.73;1.60;;;;;;;19.93;75.49;96321.34;5006460;28;20243;-68
2021/05/11 12:52:55;;;;;;;1.60;1.50;;;;;;;19.52;75.50;96257.78;5010691;28;20576;-66
2021/05/11 12:56:06;;;;;;;3.83;1.50;;;;;;;19.54;75.52;96256.97;5008379;28;20229;-67
2021/05/11 12:58:59;;;;;;;2.33;1.60;;;;;;;19.92;75.15;96309.44;5012338;28;20307;-67
2021/05/11 13:01:33;;;;;;;2.40;1.67;;;;;;;20.08;74.78;96356.47;5013659;28;20655;-67
2021/05/11 13:04:55;;;;;;;2.77;1.40;;;;;;;20.10;75.40;96364.13;5026964;28;20197;-68
2021/05/11 13:33:12;;;;;;;1.47;1.37;;;;;;;20.12;74.91;96347.13;5026681;28;20233;-67
2021/05/11 13:35:39;;;;;;;1.47;1.37;;;;;;;20.12;74.83;96337.81;5031679;28;20198;-69
2021/05/11 13:38:05;;;;;;;1.63;1.40;;;;;;;20.12;74.96;96336.94;5023337;28;20287;-68
2021/05/11 13:40:32;;;;;;;1.77;1.67;;;;;;;20.12;74.79;96334.38;5003125;28;20861;-67
2021/05/11 13:42:59;;;;;;;1.40;1.30;;;;;;;19.23;74.74;96177.41;4996293;28;20697;-67
2021/05/11 13:45:26;;;;;;;2.17;1.80;;;;;;;20.11;74.77;96328.44;5029765;28;20201;-68
2021/05/11 13:48:02;;;;;;;2.13;1.50;;;;;;;20.14;74.92;96325.13;5008255;28;20244;-68
2021/05/11 13:53:14;;;;;;;2.03;1.30;;;;;;;19.95;74.43;96294.19;5029602;28;20205;-67
2021/05/11 14:03:40;;;;;;;1.77;1.40;;;;;;;20.14;75.39;96327.66;5012339;28;20555;-67
2021/05/11 14:06:06;;;;;;;1.60;1.47;;;;;;;20.14;74.47;96337.88;5008018;28;20200;-69
2021/05/11 14:08:33;;;;;;;2.30;1.53;;;;;;;19.87;74.70;96288.09;5030079;28;20214;-68
2021/05/11 14:11:00;;;;;;;1.50;1.40;;;;;;;20.14;74.54;96338.72;4996673;28;20225;-67
2021/05/11 14:13:26;;;;;;;1.83;1.40;;;;;;;19.70;74.58;96269.16;5028822;28;20232;-68
2021/05/11 14:15:53;;;;;;;1.40;1.30;;;;;;;20.14;74.50;96342.97;5004569;28;20260;-69
2021/05/11 14:18:19;;;;;;;1.40;1.30;;;;;;;20.14;74.28;96341.28;5028058;28;20271;-67
2021/05/11 14:20:46;;;;;;;2.70;1.33;;;;;;;20.13;74.71;96352.31;5025051;28;20225;-67
2021/05/11 14:23:13;;;;;;;1.63;1.43;;;;;;;20.00;74.71;96332.50;5022823;28;20662;-67
2021/05/11 14:25:40;;;;;;;2.70;1.50;;;;;;;20.13;74.57;96361.66;5028280;28;20663;-68
2021/05/11 14:28:06;;;;;;;1.70;1.60;;;;;;;19.88;74.52;96311.91;5011516;28;20213;-67
2021/05/11 14:30:33;;;;;;;1.60;1.50;;;;;;;20.15;74.57;96352.31;5002712;28;20687;-68
2021/05/11 14:33:00;;;;;;;1.70;1.60;;;;;;;20.15;74.82;96355.75;5007531;28;20201;-66
2021/05/11 14:35:26;;;;;;;1.83;1.37;;;;;;;19.99;74.33;96341.84;5029548;28;20611;-68
2021/05/11 14:37:53;;;;;;;3.23;1.40;;;;;;;20.15;74.81;96370.19;5026375;28;20224;-67
2021/05/11 14:40:20;;;;;;;1.87;1.30;;;;;;;20.11;74.58;96361.59;5022380;28;20297;-68
2021/05/11 14:42:46;;;;;;;1.50;1.40;;;;;;;20.05;74.83;96351.31;5024823;28;20205;-67
2021/05/11 14:45:13;;;;;;;1.30;1.20;;;;;;;20.14;74.66;96373.56;5029371;28;20240;-67
2021/05/11 14:47:45;;;;;;;2.33;1.60;;;;;;;20.14;74.70;96383.78;5013144;28;20272;-68
2021/05/11 14:50:13;;;;;;;1.90;1.70;;;;;;;19.56;74.37;96303.72;5001174;28;20730;-67
2021/05/11 14:52:40;;;;;;;2.23;1.70;;;;;;;20.15;74.64;96403.34;4973441;28;20194;-68
2021/05/11 14:55:07;;;;;;;2.27;2.07;;;;;;;19.61;75.04;96311.44;5027424;28;20194;-67
2021/05/11 14:57:34;;;;;;;4.10;2.60;;;;;;;19.96;75.23;96371.56;5008796;28;20793;-67
2021/05/11 15:00:00;;;;;;;2.97;2.73;;;;;;;20.17;75.50;96419.53;5004758;28;20221;-67
2021/05/11 15:02:27;;;;;;;3.60;2.90;;;;;;;20.16;75.59;96402.53;5029418;28;20233;-68
2021/05/11 15:04:54;;;;;;;3.40;3.10;;;;;;;20.02;75.69;96382.69;5015883;28;20202;-67
2021/05/11 15:07:20;;;;;;;3.13;2.80;;;;;;;20.04;75.73;96394.63;4995935;28;20221;-67
2021/05/11 15:09:47;;;;;;;3.40;3.10;;;;;;;20.16;75.96;96420.38;5016628;28;20201;-67
2021/05/11 15:12:13;;;;;;;3.10;2.90;;;;;;;20.15;75.99;96429.72;4999889;28;20267;-67
2021/05/11 15:14:40;;;;;;;3.63;3.20;;;;;;;19.91;76.35;96394.44;5027954;28;20201;-66
2021/05/11 15:19:58;;;;;;;5.10;3.13;;;;;;;20.14;76.29;96447.53;5018549;28;20218;-68
2021/05/11 15:22:25;;;;;;;3.00;2.80;;;;;;;19.96;76.35;96410.63;5027220;28;20205;-66
2021/05/11 15:24:52;;;;;;;3.50;3.20;;;;;;;19.98;76.47;96414.94;5025722;28;20247;-65
2021/05/11 15:27:19;;;;;;;3.63;3.33;;;;;;;19.96;76.81;96402.16;4987253;28;20221;-66
2021/05/11 15:29:48;;;;;;;3.10;2.90;;;;;;;19.67;76.79;96344.69;4993351;28;20190;-67
2021/05/11 15:32:55;;;;;;;4.17;3.47;;;;;;;20.11;77.11;96404.09;5005178;28;20247;-67
2021/05/11 15:35:29;;;;;;;3.97;3.40;;;;;;;19.64;76.99;96316.59;5010783;28;20190;-66
2021/05/11 15:38:00;;;;;;;3.40;3.03;;;;;;;19.51;77.15;96284.09;4998952;28;20260;-67
2021/05/11 15:40:28;;;;;;;3.60;3.30;;;;;;;20.08;77.38;96381.09;4998010;28;20669;-67
2021/05/11 15:42:58;;;;;;;5.33;3.17;;;;;;;19.94;77.58;96368.09;5020867;28;20385;-66
2021/05/11 15:45:25;;;;;;;3.50;2.90;;;;;;;19.94;77.60;96380.84;5007784;28;20201;-66
2021/05/11 15:47:52;;;;;;;3.70;3.20;;;;;;;19.51;77.91;96318.06;5005493;28;21000;-67
2021/05/11 15:50:41;;;;;;;3.40;3.20;;;;;;;19.40;78.04;96309.38;5009915;28;20281;-67
2021/05/11 15:53:09;;;;;;;3.57;3.27;;;;;;;20.06;78.19;96426.97;4977809;28;20284;-67
2021/05/11 15:55:38;;;;;;;3.20;3.00;;;;;;;20.06;77.55;96434.63;5026998;28;20272;-67
2021/05/11 15:58:05;;;;;;;3.67;3.27;;;;;;;20.01;77.67;96427.72;5008825;28;20217;-66
2021/05/11 16:00:34;;;;;;;4.13;3.73;;;;;;;19.92;77.92;96410.56;5007980;28;20245;-67
2021/05/11 16:03:03;;;;;;;3.77;3.30;;;;;;;20.05;78.32;96439.69;4995758;28;20225;-67
2021/05/11 16:05:36;;;;;;;3.47;3.17;;;;;;;19.50;78.39;96356.25;5027096;28;20200;-67
2021/05/11 16:08:04;;;;;;;3.40;3.10;;;;;;;19.90;78.70;96430.94;4980502;28;20245;-67
2021/05/11 16:10:31;;;;;;;4.83;3.47;;;;;;;20.04;78.87;96458.38;4982255;28;21552;-68
2021/05/11 16:12:58;;;;;;;3.80;3.50;;;;;;;19.98;79.17;96454.88;5014294;28;20284;-67
2021/05/11 16:15:25;;;;;;;3.90;3.50;;;;;;;19.80;79.93;96413.75;5020882;28;20229;-67
2021/05/11 16:17:52;;;;;;;3.70;3.40;;;;;;;20.02;80.15;96452.38;4976369;28;20229;-67